createdAt,value
2022-10-05T00:00:48.430Z,77.19
2022-10-05T00:03:15.922Z,76.98
2022-10-05T00:05:44.949Z,77.41
2022-10-05T00:08:18.127Z,77.08
2022-10-05T00:10:45.941Z,77.12
2022-10-05T00:13:21.746Z,77.48
2022-10-05T00:15:49.524Z,77.00
2022-10-05T00:18:19.116Z,77.80
2022-10-05T00:20:47.398Z,77.46
2022-10-05T00:23:35.094Z,77.86
2022-10-05T00:26:06.964Z,78.10
2022-10-05T00:28:34.611Z,78.30
2022-10-05T00:31:01.983Z,78.35
2022-10-05T00:33:29.677Z,77.95
2022-10-05T00:35:57.714Z,78.07
2022-10-05T00:38:25.189Z,78.60
2022-10-05T00:40:58.597Z,78.83
2022-10-05T00:43:44.822Z,79.49
2022-10-05T00:46:17.219Z,79.98
2022-10-05T00:49:05.173Z,79.92
2022-10-05T00:51:36.714Z,79.82
2022-10-05T00:54:19.823Z,79.74
2022-10-05T00:57:06.604Z,79.33
2022-10-05T01:00:06.883Z,78.61
2022-10-05T01:02:50.568Z,78.80
2022-10-05T01:05:41.769Z,78.49
2022-10-05T01:08:09.369Z,78.73
2022-10-05T01:10:38.940Z,79.22
2022-10-05T01:13:16.004Z,79.35
2022-10-05T01:15:48.154Z,79.01
2022-10-05T01:18:39.216Z,78.46
2022-10-05T01:21:24.788Z,77.52
2022-10-05T01:24:12.388Z,78.20
2022-10-05T01:26:56.762Z,79.27
2022-10-05T01:29:30.455Z,79.85
2022-10-05T01:32:29.394Z,80.83
2022-10-05T01:35:20.621Z,81.52
2022-10-05T01:37:48.077Z,82.34
2022-10-05T01:40:44.826Z,82.38
2022-10-05T01:43:38.043Z,81.96
2022-10-05T01:46:26.376Z,82.11
2022-10-05T01:49:08.940Z,81.32
2022-10-05T01:51:45.103Z,81.12
2022-10-05T01:54:46.509Z,81.72
2022-10-05T01:57:20.251Z,82.04
2022-10-05T02:00:03.699Z,81.93
2022-10-05T02:02:58.745Z,82.27
2022-10-05T02:05:56.878Z,82.10
2022-10-05T02:08:35.372Z,81.82
2022-10-05T02:11:06.862Z,82.24
2022-10-05T02:13:39.280Z,82.39
2022-10-05T02:16:21.586Z,82.46
2022-10-05T02:18:58.667Z,82.72
2022-10-05T02:21:26.127Z,82.92
2022-10-05T02:23:54.894Z,82.36
2022-10-05T02:26:24.645Z,81.34
2022-10-05T02:29:06.204Z,81.46
2022-10-05T02:31:41.829Z,82.07
2022-10-05T02:34:32.717Z,82.18
2022-10-05T02:37:26.187Z,81.67
2022-10-05T02:39:57.455Z,81.83
2022-10-05T02:42:45.683Z,81.76
2022-10-05T02:45:24.386Z,81.73
2022-10-05T02:47:55.736Z,81.66
2022-10-05T02:50:45.396Z,81.69
2022-10-05T02:53:27.935Z,81.50
2022-10-05T02:56:07.227Z,81.13
2022-10-05T02:58:45.464Z,81.54
2022-10-05T03:01:32.556Z,81.70
2022-10-05T03:04:12.376Z,81.82
2022-10-05T03:06:56.319Z,81.72
2022-10-05T03:09:24.320Z,80.96
2022-10-05T03:11:58.773Z,81.34
2022-10-05T03:14:30.554Z,81.68
2022-10-05T03:17:16.096Z,81.67
2022-10-05T03:19:49.547Z,81.87
2022-10-05T03:23:05.467Z,81.42
2022-10-05T03:25:44.927Z,81.03
2022-10-05T03:28:23.583Z,80.60
2022-10-05T03:31:13.103Z,80.65
2022-10-05T03:33:47.060Z,80.88
2022-10-05T03:36:41.784Z,81.31
2022-10-05T03:39:16.268Z,81.61
2022-10-05T03:41:51.781Z,81.35
2022-10-05T03:44:41.384Z,81.59
2022-10-05T03:47:19.508Z,81.97
2022-10-05T03:49:51.028Z,82.20
2022-10-05T03:52:52.744Z,81.69
2022-10-05T03:55:44.218Z,82.45
2022-10-05T03:58:38.074Z,82.96
2022-10-05T04:01:09.405Z,83.51
2022-10-05T04:03:46.094Z,82.89
2022-10-05T04:06:16.937Z,83.47
2022-10-05T04:08:52.471Z,83.87
2022-10-05T04:11:45.017Z,84.25
2022-10-05T04:14:17.012Z,84.49
2022-10-05T04:16:50.097Z,84.43
2022-10-05T04:19:38.069Z,84.66
2022-10-05T04:22:25.586Z,84.62
2022-10-05T04:25:03.809Z,84.33
2022-10-05T04:27:33.268Z,84.25
2022-10-05T04:30:11.912Z,83.87
2022-10-05T04:32:45.052Z,83.62
2022-10-05T04:35:35.026Z,83.33
2022-10-05T04:38:42.981Z,83.25
2022-10-05T04:41:29.492Z,82.36
2022-10-05T04:44:03.766Z,82.06
2022-10-05T04:46:53.057Z,81.58
2022-10-05T04:49:42.414Z,81.32
2022-10-05T04:52:23.560Z,81.88
2022-10-05T04:55:05.102Z,81.98
2022-10-05T04:57:57.869Z,81.91
2022-10-05T05:00:28.534Z,81.96
2022-10-05T05:03:31.897Z,81.95
2022-10-05T05:06:23.035Z,82.07
2022-10-05T05:09:15.640Z,83.06
2022-10-05T05:12:20.219Z,83.46
2022-10-05T05:15:13.217Z,83.34
2022-10-05T05:18:07.588Z,82.91
2022-10-05T05:21:13.490Z,83.07
2022-10-05T05:24:05.337Z,82.91
2022-10-05T05:26:43.958Z,81.86
2022-10-05T05:29:18.761Z,81.87
2022-10-05T05:31:58.230Z,81.61
2022-10-05T05:34:33.433Z,81.76
2022-10-05T05:37:07.234Z,82.27
2022-10-05T05:39:57.811Z,82.81
2022-10-05T05:42:34.918Z,82.89
2022-10-05T05:45:23.782Z,83.26
2022-10-05T05:48:02.223Z,82.75
2022-10-05T05:50:46.692Z,82.84
2022-10-05T05:53:21.814Z,82.67
2022-10-05T05:56:00.946Z,82.09
2022-10-05T05:58:55.235Z,81.39
2022-10-05T06:01:43.433Z,81.46
2022-10-05T06:04:52.869Z,81.57
2022-10-05T06:07:32.462Z,81.71
2022-10-05T06:10:31.914Z,81.28
2022-10-05T06:13:12.209Z,80.81
2022-10-05T06:15:51.390Z,80.96
2022-10-05T06:18:22.022Z,81.34
2022-10-05T06:21:02.099Z,81.65
2022-10-05T06:23:41.564Z,81.40
2022-10-05T06:26:52.767Z,80.61
2022-10-05T06:29:25.497Z,80.75
2022-10-05T06:32:10.169Z,79.95
2022-10-05T06:34:58.220Z,77.98
2022-10-05T06:37:36.844Z,76.37
2022-10-05T06:40:11.604Z,77.25
2022-10-05T06:42:45.061Z,79.15
2022-10-05T06:46:09.305Z,79.81
2022-10-05T06:49:03.465Z,79.62
2022-10-05T06:56:02.244Z,79.33
2022-10-05T06:58:49.607Z,77.15
2022-10-05T07:02:37.719Z,76.92
2022-10-05T07:05:39.840Z,77.47
2022-10-05T07:08:19.004Z,77.52
2022-10-05T07:14:54.489Z,64.76
2022-10-05T07:17:27.070Z,60.78
2022-10-05T07:20:24.015Z,58.47
2022-10-05T07:22:57.849Z,56.90
2022-10-05T07:25:37.054Z,57.06
2022-10-05T07:28:39.057Z,56.89
2022-10-05T07:31:49.123Z,55.21
2022-10-05T07:34:41.706Z,54.91
2022-10-05T07:37:57.315Z,55.38
2022-10-05T07:40:45.558Z,55.10
2022-10-05T07:44:00.545Z,54.30
2022-10-05T07:46:44.553Z,53.36
2022-10-05T07:49:23.847Z,53.07
2022-10-05T07:52:10.086Z,52.76
2022-10-05T07:55:17.041Z,52.21
2022-10-05T07:58:18.575Z,51.46
2022-10-05T08:01:00.485Z,50.64
2022-10-05T08:03:35.788Z,50.66
2022-10-05T08:06:05.671Z,49.72
2022-10-05T08:08:59.226Z,50.37
2022-10-05T08:11:49.368Z,50.96
2022-10-05T08:15:01.774Z,59.91
2022-10-05T08:17:41.310Z,61.42
2022-10-05T08:20:22.941Z,62.65
2022-10-05T08:23:20.841Z,61.95
2022-10-05T08:26:27.418Z,62.99
2022-10-05T08:29:15.588Z,62.85
2022-10-05T08:31:46.492Z,62.88
2022-10-05T08:34:30.556Z,63.53
2022-10-05T08:37:06.473Z,63.30
2022-10-05T08:39:58.227Z,63.43
2022-10-05T08:42:51.928Z,62.79
2022-10-05T08:45:48.294Z,62.97
2022-10-05T08:48:50.108Z,63.13
2022-10-05T08:51:54.728Z,61.93
2022-10-05T08:55:15.243Z,62.57
2022-10-05T08:58:04.156Z,61.71
2022-10-05T09:00:35.995Z,62.00
2022-10-05T09:03:34.450Z,62.37
2022-10-05T09:06:26.930Z,62.30
2022-10-05T09:09:23.705Z,61.65
2022-10-05T09:12:08.736Z,61.34
2022-10-05T09:14:56.609Z,60.83
2022-10-05T09:17:48.372Z,60.97
2022-10-05T09:20:49.305Z,61.72
2022-10-05T09:23:46.517Z,61.72
2022-10-05T09:27:03.162Z,62.10
2022-10-05T09:30:09.522Z,60.86
2022-10-05T09:33:31.102Z,60.34
2022-10-05T09:36:27.764Z,59.64
2022-10-05T09:39:32.398Z,59.94
2022-10-05T09:42:12.499Z,60.48
2022-10-05T09:45:02.226Z,60.75
2022-10-05T09:47:50.285Z,59.85
2022-10-05T09:50:43.493Z,59.54
2022-10-05T09:57:55.809Z,58.82
2022-10-05T10:00:47.065Z,58.63
2022-10-05T10:03:48.906Z,58.24
2022-10-05T10:06:56.723Z,58.08
2022-10-05T10:09:51.069Z,57.73
2022-10-05T10:12:35.981Z,58.66
2022-10-05T10:15:09.736Z,58.68
2022-10-05T10:18:15.990Z,58.71
2022-10-05T10:21:21.104Z,58.54
2022-10-05T10:24:11.699Z,58.81
2022-10-05T10:27:52.226Z,58.68
2022-10-05T10:31:25.373Z,58.03
2022-10-05T10:34:36.283Z,57.79
2022-10-05T10:37:42.753Z,56.83
2022-10-05T10:40:26.257Z,56.58
2022-10-05T10:52:33.012Z,56.43
2022-10-05T10:55:09.018Z,56.34
2022-10-05T11:06:59.801Z,55.15
2022-10-05T11:09:54.554Z,54.99
2022-10-05T11:13:06.123Z,55.73
2022-10-05T11:15:47.282Z,55.01
2022-10-05T11:18:29.455Z,55.79
2022-10-05T11:21:26.423Z,56.38
2022-10-05T11:24:19.442Z,56.70
2022-10-05T11:27:27.931Z,56.01
2022-10-05T11:30:19.995Z,55.68
2022-10-05T11:33:17.710Z,55.57
2022-10-05T11:36:18.321Z,56.07
2022-10-05T11:43:13.104Z,57.33
2022-10-05T11:45:46.384Z,56.98
2022-10-05T11:48:55.719Z,57.47
2022-10-05T11:52:01.629Z,56.77
2022-10-05T11:55:11.660Z,57.13
2022-10-05T11:57:59.353Z,55.98
2022-10-05T12:00:41.755Z,55.58
2022-10-05T12:03:37.870Z,55.78
2022-10-05T12:06:39.181Z,55.76
2022-10-05T12:09:39.245Z,55.20
2022-10-05T12:12:18.114Z,55.18
2022-10-05T12:15:00.561Z,55.14
2022-10-05T12:17:36.049Z,55.69
2022-10-05T12:20:31.651Z,56.38
2022-10-05T12:23:21.447Z,56.01
2022-10-05T12:26:04.019Z,56.68
2022-10-05T12:28:43.223Z,56.31
2022-10-05T12:31:17.494Z,55.95
2022-10-05T12:34:19.483Z,56.03
2022-10-05T12:37:04.503Z,56.15
2022-10-05T12:39:53.753Z,56.15
2022-10-05T12:42:28.204Z,56.51
2022-10-05T12:45:09.996Z,56.57
2022-10-05T12:47:54.117Z,56.59
2022-10-05T12:50:29.328Z,56.33
2022-10-05T12:53:06.279Z,56.74
2022-10-05T12:55:53.590Z,56.86
2022-10-05T12:58:23.481Z,56.78
2022-10-05T13:01:24.440Z,55.76
2022-10-05T13:03:57.949Z,55.53
2022-10-05T13:06:33.963Z,55.46
2022-10-05T13:09:09.121Z,55.14
2022-10-05T13:11:43.560Z,55.66
2022-10-05T13:14:11.534Z,55.66
2022-10-05T13:16:45.733Z,56.36
2022-10-05T13:19:21.428Z,56.52
2022-10-05T13:22:04.849Z,55.87
2022-10-05T13:24:59.665Z,55.99
2022-10-05T13:27:31.176Z,56.43
2022-10-05T13:30:02.535Z,56.33
2022-10-05T13:32:39.711Z,56.63
2022-10-05T13:35:25.537Z,56.27
2022-10-05T13:38:15.547Z,56.43
2022-10-05T13:41:18.981Z,56.53
2022-10-05T13:43:59.389Z,56.22
2022-10-05T13:46:37.169Z,56.48
2022-10-05T13:49:18.697Z,55.91
2022-10-05T13:51:56.308Z,55.97
2022-10-05T13:54:42.925Z,56.34
2022-10-05T13:57:30.420Z,56.83
2022-10-05T13:59:59.106Z,56.57
2022-10-05T14:02:54.467Z,56.34
2022-10-05T14:05:24.550Z,56.20
2022-10-05T14:07:56.606Z,56.03
2022-10-05T14:10:38.041Z,56.12
2022-10-05T14:13:28.541Z,56.47
2022-10-05T14:16:05.338Z,57.36
2022-10-05T14:18:34.871Z,57.10
2022-10-05T14:21:08.596Z,57.42
2022-10-05T14:23:36.781Z,57.99
2022-10-05T14:26:19.294Z,57.95
2022-10-05T14:29:03.604Z,58.68
2022-10-05T14:31:36.522Z,58.47
2022-10-05T14:34:29.233Z,59.04
2022-10-05T14:37:02.880Z,58.45
2022-10-05T14:39:34.361Z,59.06
2022-10-05T14:42:20.507Z,58.59
2022-10-05T14:45:12.481Z,58.68
2022-10-05T14:48:02.436Z,58.57
2022-10-05T14:50:31.727Z,58.92
2022-10-05T14:53:20.144Z,59.14
2022-10-05T14:56:01.383Z,58.95
2022-10-05T14:58:44.733Z,59.13
2022-10-05T15:01:18.560Z,59.37
2022-10-05T15:03:47.526Z,59.20
2022-10-05T15:06:39.500Z,59.30
2022-10-05T15:09:45.074Z,59.79
2022-10-05T15:12:14.515Z,60.29
2022-10-05T15:14:45.422Z,60.29
2022-10-05T15:17:28.372Z,59.96
2022-10-05T15:20:02.387Z,60.40
2022-10-05T15:22:54.482Z,60.35
2022-10-05T15:25:27.176Z,60.41
2022-10-05T15:28:10.530Z,60.40
2022-10-05T15:30:41.916Z,59.92
2022-10-05T15:33:22.347Z,60.19
2022-10-05T15:36:08.507Z,60.51
2022-10-05T15:38:41.458Z,60.87
2022-10-05T15:41:21.054Z,61.09
2022-10-05T15:44:09.770Z,61.25
2022-10-05T15:46:41.821Z,61.59
2022-10-05T15:49:51.705Z,61.92
2022-10-05T15:52:28.906Z,62.03
2022-10-05T15:55:18.778Z,62.11
2022-10-05T15:58:22.389Z,62.42
2022-10-05T16:01:39.320Z,62.59
2022-10-05T16:04:21.104Z,63.08
2022-10-05T16:07:39.175Z,63.57
2022-10-05T16:10:17.475Z,63.87
2022-10-05T16:13:05.141Z,63.89
2022-10-05T16:15:48.725Z,64.79
2022-10-05T16:18:21.997Z,65.07
2022-10-05T16:21:10.172Z,65.63
2022-10-05T16:24:06.380Z,66.20
2022-10-05T16:26:39.971Z,66.06
2022-10-05T16:29:11.138Z,66.50
2022-10-05T16:32:00.147Z,66.36
2022-10-05T16:34:45.249Z,66.74
2022-10-05T16:37:32.268Z,66.31
2022-10-05T16:40:19.454Z,66.57
2022-10-05T16:43:13.299Z,66.42
2022-10-05T16:45:53.462Z,66.29
2022-10-05T16:48:43.734Z,66.85
2022-10-05T16:51:27.087Z,67.27
2022-10-05T16:54:13.494Z,67.09
2022-10-05T16:56:43.752Z,67.26
2022-10-05T16:59:54.664Z,67.62
2022-10-05T17:02:35.213Z,68.83
2022-10-05T17:05:21.584Z,68.07
2022-10-05T17:08:05.924Z,68.49
2022-10-05T17:10:46.894Z,68.48
2022-10-05T17:13:32.685Z,68.54
2022-10-05T17:16:22.994Z,68.77
2022-10-05T17:19:12.361Z,69.12
2022-10-05T17:21:45.732Z,68.86
2022-10-05T17:24:34.113Z,69.27
2022-10-05T17:27:16.054Z,69.32
2022-10-05T17:29:54.315Z,69.44
2022-10-05T17:32:22.017Z,69.46
2022-10-05T17:35:01.860Z,69.67
2022-10-05T17:38:05.785Z,70.04
2022-10-05T17:40:35.569Z,70.19
2022-10-05T17:43:15.711Z,70.70
2022-10-05T17:45:43.736Z,70.12
2022-10-05T17:48:14.496Z,70.19
2022-10-05T17:51:04.968Z,70.85
2022-10-05T17:54:04.016Z,70.86
2022-10-05T17:56:47.390Z,70.98
2022-10-05T17:59:46.531Z,71.81
2022-10-05T18:02:20.143Z,71.78
2022-10-05T18:05:12.648Z,71.92
2022-10-05T18:07:40.954Z,71.70
2022-10-05T18:10:17.686Z,71.79
2022-10-05T18:13:29.996Z,72.28
2022-10-05T18:15:57.529Z,72.32
2022-10-05T18:18:43.224Z,72.13
2022-10-05T18:21:13.799Z,72.33
2022-10-05T18:23:59.544Z,72.41
2022-10-05T18:26:33.638Z,73.10
2022-10-05T18:29:53.182Z,72.73
2022-10-05T18:32:56.314Z,72.97
2022-10-05T18:35:44.326Z,73.32
2022-10-05T18:38:24.183Z,72.91
2022-10-05T18:41:21.439Z,72.95
2022-10-05T18:44:07.808Z,72.86
2022-10-05T18:46:38.550Z,73.07
2022-10-05T18:49:25.401Z,73.37
2022-10-05T18:52:01.348Z,73.59
2022-10-05T18:54:54.963Z,73.80
2022-10-05T18:57:44.030Z,73.61
2022-10-05T19:00:14.907Z,74.19
2022-10-05T19:02:58.911Z,73.97
2022-10-05T19:05:49.658Z,74.02
2022-10-05T19:08:28.358Z,74.09
2022-10-05T19:11:23.310Z,74.04
2022-10-05T19:14:12.201Z,74.30
2022-10-05T19:17:08.265Z,74.35
2022-10-05T19:19:58.622Z,74.53
2022-10-05T19:22:47.971Z,74.68
2022-10-05T19:25:27.521Z,74.45
2022-10-05T19:28:17.504Z,74.83
2022-10-05T19:30:56.200Z,74.66
2022-10-05T19:33:37.407Z,74.60
2022-10-05T19:36:21.994Z,75.30
2022-10-05T19:39:18.007Z,75.27
2022-10-05T19:42:24.809Z,75.16
2022-10-05T19:44:58.624Z,75.76
2022-10-05T19:47:41.464Z,76.67
2022-10-05T19:50:24.162Z,76.93
2022-10-05T19:52:57.676Z,76.54
2022-10-05T19:55:26.490Z,76.49
2022-10-05T19:58:00.771Z,76.36
2022-10-05T20:00:30.676Z,75.60
2022-10-05T20:03:23.610Z,75.67
2022-10-05T20:05:53.383Z,76.31
2022-10-05T20:08:21.854Z,76.11
2022-10-05T20:11:06.379Z,76.69
2022-10-05T20:13:35.499Z,77.18
2022-10-05T20:16:34.329Z,76.92
2022-10-05T20:19:24.713Z,77.45
2022-10-05T20:21:53.807Z,77.07
2022-10-05T20:24:28.107Z,77.08
2022-10-05T20:27:05.730Z,77.41
2022-10-05T20:29:35.593Z,77.55
2022-10-05T20:32:12.420Z,77.26
2022-10-05T20:34:47.238Z,77.27
2022-10-05T20:37:16.427Z,77.37
2022-10-05T20:39:44.259Z,75.94
2022-10-05T20:42:12.043Z,76.47
2022-10-05T20:44:39.436Z,76.54
2022-10-05T20:47:09.352Z,77.34
2022-10-05T20:49:38.751Z,76.91
2022-10-05T20:52:07.480Z,76.97
2022-10-05T20:54:35.436Z,77.31
2022-10-05T20:57:05.987Z,78.12
2022-10-05T20:59:33.626Z,78.59
2022-10-05T21:02:01.783Z,78.49
2022-10-05T21:04:41.505Z,78.64
2022-10-05T21:07:09.959Z,78.45
2022-10-05T21:09:39.604Z,78.24
2022-10-05T21:12:07.141Z,78.05
2022-10-05T21:14:36.455Z,78.09
2022-10-05T21:17:07.512Z,77.85
2022-10-05T21:19:39.555Z,77.94
2022-10-05T21:22:07.994Z,77.87
2022-10-05T21:24:39.355Z,77.78
2022-10-05T21:27:07.175Z,77.47
2022-10-05T21:29:35.590Z,77.21
2022-10-05T21:32:03.631Z,76.91
2022-10-05T21:34:31.339Z,77.46
2022-10-05T21:36:58.945Z,77.43
2022-10-05T21:39:27.047Z,78.59
2022-10-05T21:41:54.580Z,78.25
2022-10-05T21:44:22.097Z,77.56
2022-10-05T21:46:49.546Z,77.14
2022-10-05T21:49:19.629Z,78.11
2022-10-05T21:51:48.038Z,78.06
2022-10-05T21:54:17.009Z,77.91
2022-10-05T21:56:46.236Z,78.40
2022-10-05T21:59:14.846Z,78.48
2022-10-05T22:01:42.494Z,78.31
2022-10-05T22:04:09.947Z,78.23
2022-10-05T22:06:37.368Z,78.42
2022-10-05T22:09:05.042Z,77.41
2022-10-05T22:11:32.794Z,76.95
2022-10-05T22:14:02.985Z,77.16
2022-10-05T22:16:33.208Z,77.27
2022-10-05T22:19:04.924Z,77.24
2022-10-05T22:21:38.101Z,77.01
2022-10-05T22:24:06.287Z,76.79
2022-10-05T22:26:34.937Z,76.71
2022-10-05T22:29:02.617Z,76.82
2022-10-05T22:31:30.466Z,77.08
2022-10-05T22:33:58.078Z,77.03
2022-10-05T22:36:25.466Z,76.77
2022-10-05T22:38:53.099Z,76.51
2022-10-05T22:41:20.878Z,76.22
2022-10-05T22:43:50.450Z,76.99
2022-10-05T22:46:18.266Z,77.29
2022-10-05T22:48:46.076Z,78.61
2022-10-05T22:51:13.789Z,78.61
2022-10-05T22:53:41.260Z,79.56
2022-10-05T22:56:10.494Z,79.66
2022-10-05T22:58:38.031Z,79.65
2022-10-05T23:01:07.407Z,79.95
2022-10-05T23:03:35.289Z,79.86
2022-10-05T23:06:04.753Z,80.21
2022-10-05T23:08:32.935Z,79.52
2022-10-05T23:11:10.770Z,79.02
2022-10-05T23:13:38.807Z,79.62
2022-10-05T23:16:14.028Z,79.51
2022-10-05T23:18:41.963Z,79.49
2022-10-05T23:21:09.934Z,78.93
2022-10-05T23:23:40.654Z,79.16
2022-10-05T23:26:09.034Z,79.79
2022-10-05T23:28:36.852Z,80.00
2022-10-05T23:31:05.965Z,79.46
2022-10-05T23:33:34.076Z,79.77
2022-10-05T23:36:18.594Z,79.93
2022-10-05T23:38:46.193Z,80.38
2022-10-05T23:41:13.713Z,80.76
2022-10-05T23:43:41.461Z,80.81
2022-10-05T23:46:09.099Z,81.35
2022-10-05T23:48:40.068Z,81.78
2022-10-05T23:51:08.795Z,82.05
2022-10-05T23:53:36.303Z,82.79
2022-10-05T23:56:03.861Z,82.70
2022-10-05T23:58:31.553Z,82.18
